Etusivu
METAR-TAF:

METAR-TAF

Lentoasemat :

Salala, Oman

Leveyspiiri: 17-02N, Pituuspiiri: 054-05E, korkeus merenpinnasta: 20 m

Tämänhetkinen sää

Tämä raportti tehtiin 1 tunti ja 30 minuuttia sitten, kello 22.50 UTC
Tuuli 2 kn pohjoisesta
Lämpötila 25°C
Kosteus 69%
Ilmanpaine 1012 hPa
Näkyvyys 10 km tai enemmän
Muutamia pilviä 3000 ft:n korkeudessa

METAR: OOSA 272250Z 36002KT 9999 FEW030 25/19 Q1012 NOSIG

Aika: 04:20 (00:20 UTC)

Sääennuste

Tämä raportti tehtiin 6 tuntia ja 56 minuuttia sitten, kello 17.24 UTC
Ennuste voimassa 27. päivästä klo 18 UTC - 29. päivään klo 00 UTC
Tuuli 3 kn eri suunnista
Näkyvyys 10 km tai enemmän
ei pilviä alle 1500 m:ssä eikä cumulonimbus-pilviä
Tulossa
28. päivästä klo 05 UTC - 28. päivään klo 07 UTC
Tuuli 12 kn kaakosta
Tulossa
28. päivästä klo 16 UTC - 28. päivään klo 18 UTC
Tuuli 3 kn eri suunnista

TAF: OOSA 271724Z 2718/2900 VRB03KT CAVOK BECMG 2805/2807 14012KT BECMG 2816/2818 VRB03KT

Säähavainnot ja -ennusteet yli 4000 lentoasemalta (METAR- ja TAF-raportit).

Käytössä olevat sääasemat on merkitty karttaan keltaisilla ja punaisilla pisteillä.

Aseta hiiri pisteen päälle nähdäksesi sääaseman nimen.

Klikkaa sitten nähdäksesi säähavainnot ja -ennusteet.

Kartan vaihtaminen: klikkaa mustalla rastilla varustettuja vihreitä pisteitä, niin voit zoomata sisään; viivalla varustettua vihreää pistettä, niin voit zoomata ulos tai vihreitä nuolia, niin pääset viereisille kartoille.


METAR-TAF: